createdAt,value
2019-05-23T00:00:15.124Z,1018.52
2019-05-23T00:01:15.168Z,1018.48
2019-05-23T00:02:15.197Z,1018.50
2019-05-23T00:03:15.148Z,1018.50
2019-05-23T00:04:15.143Z,1018.53
2019-05-23T00:05:15.142Z,1018.48
2019-05-23T00:06:15.131Z,1018.51
2019-05-23T00:07:15.126Z,1018.51
2019-05-23T00:08:15.167Z,1018.51
2019-05-23T00:09:15.155Z,1018.56
2019-05-23T00:10:15.159Z,1018.52
2019-05-23T00:11:15.310Z,1018.53
2019-05-23T00:12:15.125Z,1018.52
2019-05-23T00:13:15.154Z,1018.52
2019-05-23T00:14:15.155Z,1018.61
2019-05-23T00:15:15.123Z,1018.60
2019-05-23T00:16:15.157Z,1018.60
2019-05-23T00:17:15.141Z,1018.61
2019-05-23T00:18:15.207Z,1018.58
2019-05-23T00:19:15.212Z,1018.54
2019-05-23T00:20:15.199Z,1018.56
2019-05-23T00:21:15.169Z,1018.54
2019-05-23T00:22:15.173Z,1018.54
2019-05-23T00:23:15.130Z,1018.52
2019-05-23T00:24:15.307Z,1018.51
2019-05-23T00:25:15.158Z,1018.58
2019-05-23T00:26:15.164Z,1018.55
2019-05-23T00:27:15.178Z,1018.57
2019-05-23T00:28:15.150Z,1018.53
2019-05-23T00:29:15.206Z,1018.56
2019-05-23T00:30:15.200Z,1018.60
2019-05-23T00:31:15.143Z,1018.59
2019-05-23T00:32:15.163Z,1018.58
2019-05-23T00:33:15.198Z,1018.58
2019-05-23T00:34:15.138Z,1018.59
2019-05-23T00:35:15.188Z,1018.60
2019-05-23T00:36:15.202Z,1018.59
2019-05-23T00:37:15.203Z,1018.64
2019-05-23T00:38:15.163Z,1018.61
2019-05-23T00:39:15.184Z,1018.59
2019-05-23T00:40:15.169Z,1018.56
2019-05-23T00:41:15.204Z,1018.59
2019-05-23T00:42:15.187Z,1018.55
2019-05-23T00:43:15.154Z,1018.52
2019-05-23T00:44:15.197Z,1018.51
2019-05-23T00:45:15.153Z,1018.51
2019-05-23T00:46:15.191Z,1018.49
2019-05-23T00:47:15.182Z,1018.51
2019-05-23T00:48:15.170Z,1018.52
2019-05-23T00:49:15.163Z,1018.47
2019-05-23T00:50:15.167Z,1018.43
2019-05-23T00:51:15.232Z,1018.51
2019-05-23T00:52:15.154Z,1018.48
2019-05-23T00:53:15.184Z,1018.44
2019-05-23T00:54:15.230Z,1018.43
2019-05-23T00:55:15.204Z,1018.43
2019-05-23T00:56:15.179Z,1018.47
2019-05-23T00:57:15.201Z,1018.48
2019-05-23T00:58:15.151Z,1018.45
2019-05-23T00:59:26.553Z,1018.45
2019-05-23T01:00:15.197Z,1018.41
2019-05-23T01:01:15.171Z,1018.40
2019-05-23T01:02:15.210Z,1018.44
2019-05-23T01:03:15.191Z,1018.39
2019-05-23T01:04:15.211Z,1018.35
2019-05-23T01:05:15.213Z,1018.36
2019-05-23T01:06:15.190Z,1018.35
2019-05-23T01:07:15.223Z,1018.35
2019-05-23T01:08:15.178Z,1018.41
2019-05-23T01:09:15.194Z,1018.36
2019-05-23T01:10:15.208Z,1018.36
2019-05-23T01:11:15.211Z,1018.33
2019-05-23T01:12:15.237Z,1018.30
2019-05-23T01:13:15.202Z,1018.26
2019-05-23T01:14:15.255Z,1018.27
2019-05-23T01:15:15.215Z,1018.26
2019-05-23T01:16:15.213Z,1018.33
2019-05-23T01:17:15.220Z,1018.31
2019-05-23T01:18:15.242Z,1018.28
2019-05-23T01:19:15.220Z,1018.27
2019-05-23T01:20:15.252Z,1018.24
2019-05-23T01:21:15.193Z,1018.23
2019-05-23T01:22:15.351Z,1018.29
2019-05-23T01:23:15.288Z,1018.24
2019-05-23T01:24:15.212Z,1018.24
2019-05-23T01:25:15.222Z,1018.23
2019-05-23T01:26:15.243Z,1018.21
2019-05-23T01:27:15.216Z,1018.23
2019-05-23T01:28:15.387Z,1018.27
2019-05-23T01:29:15.232Z,1018.27
2019-05-23T01:30:15.248Z,1018.30
2019-05-23T01:31:15.188Z,1018.29
2019-05-23T01:32:15.207Z,1018.26
2019-05-23T01:33:15.219Z,1018.27
2019-05-23T01:34:15.210Z,1018.22
2019-05-23T01:35:15.271Z,1018.24
2019-05-23T01:36:15.198Z,1018.24
2019-05-23T01:37:15.240Z,1018.20
2019-05-23T01:38:15.267Z,1018.19
2019-05-23T01:39:15.275Z,1018.15
2019-05-23T01:40:15.235Z,1018.14
2019-05-23T01:41:15.265Z,1018.17
2019-05-23T01:42:15.242Z,1018.17
2019-05-23T01:43:15.210Z,1018.19
2019-05-23T01:44:15.218Z,1018.17
2019-05-23T01:45:15.215Z,1018.16
2019-05-23T01:46:15.261Z,1018.15
2019-05-23T01:47:15.240Z,1018.18
2019-05-23T01:48:15.252Z,1018.14
2019-05-23T01:49:15.200Z,1018.16
2019-05-23T01:50:15.264Z,1018.11
2019-05-23T01:51:15.284Z,1018.14
2019-05-23T01:52:15.274Z,1018.08
2019-05-23T01:53:15.275Z,1018.09
2019-05-23T01:54:15.219Z,1018.09
2019-05-23T01:55:15.237Z,1018.11
2019-05-23T01:56:15.262Z,1018.08
2019-05-23T01:57:15.246Z,1018.07
2019-05-23T01:58:15.257Z,1018.10
2019-05-23T01:59:15.276Z,1018.08
2019-05-23T02:00:15.241Z,1018.07
2019-05-23T02:01:15.264Z,1018.13
2019-05-23T02:02:15.327Z,1018.08
2019-05-23T02:03:15.278Z,1018.08
2019-05-23T02:04:15.230Z,1018.07
2019-05-23T02:05:15.292Z,1018.05
2019-05-23T02:06:15.251Z,1018.06
2019-05-23T02:07:15.296Z,1017.99
2019-05-23T02:08:15.280Z,1018.01
2019-05-23T02:09:15.306Z,1017.99
2019-05-23T02:10:15.255Z,1018.02
2019-05-23T02:11:15.242Z,1017.98
2019-05-23T02:12:15.255Z,1017.95
2019-05-23T02:13:15.406Z,1017.96
2019-05-23T02:14:15.364Z,1017.97
2019-05-23T02:15:15.287Z,1017.94
2019-05-23T02:16:15.280Z,1017.99
2019-05-23T02:17:15.294Z,1018.02
2019-05-23T02:18:15.291Z,1017.99
2019-05-23T02:19:15.255Z,1017.95
2019-05-23T02:20:15.336Z,1017.91
2019-05-23T02:21:15.295Z,1017.91
2019-05-23T02:22:15.276Z,1017.91
2019-05-23T02:23:15.303Z,1017.91
2019-05-23T02:24:15.265Z,1017.93
2019-05-23T02:25:15.258Z,1017.93
2019-05-23T02:26:15.280Z,1017.93
2019-05-23T02:27:15.253Z,1017.89
2019-05-23T02:28:15.299Z,1017.88
2019-05-23T02:29:15.284Z,1017.88
2019-05-23T02:30:32.955Z,1017.92
2019-05-23T02:31:15.242Z,1017.93
2019-05-23T02:32:15.245Z,1017.88
2019-05-23T02:33:15.283Z,1017.92
2019-05-23T02:34:15.315Z,1017.91
2019-05-23T02:35:15.262Z,1017.89
2019-05-23T02:36:15.271Z,1017.92
2019-05-23T02:37:15.336Z,1017.92
2019-05-23T02:38:15.271Z,1017.88
2019-05-23T02:39:15.307Z,1017.88
2019-05-23T02:40:15.336Z,1017.95
2019-05-23T02:41:15.326Z,1017.90
2019-05-23T02:42:15.259Z,1017.91
2019-05-23T02:43:15.341Z,1017.89
2019-05-23T02:44:15.312Z,1017.89
2019-05-23T02:45:15.300Z,1017.89
2019-05-23T02:46:15.321Z,1017.84
2019-05-23T02:47:15.313Z,1017.89
2019-05-23T02:48:15.272Z,1017.87
2019-05-23T02:49:15.298Z,1017.86
2019-05-23T02:50:15.297Z,1017.87
2019-05-23T02:51:15.279Z,1017.90
2019-05-23T02:52:15.323Z,1017.87
2019-05-23T02:53:15.316Z,1017.88
2019-05-23T02:54:15.300Z,1017.84
2019-05-23T02:55:15.338Z,1017.85
2019-05-23T02:56:15.332Z,1017.85
2019-05-23T02:57:15.322Z,1017.83
2019-05-23T02:58:15.379Z,1017.80
2019-05-23T02:59:15.299Z,1017.78
2019-05-23T03:00:15.358Z,1017.85
2019-05-23T03:01:15.344Z,1017.84
2019-05-23T03:02:15.309Z,1017.81
2019-05-23T03:03:15.314Z,1017.79
2019-05-23T03:04:15.325Z,1017.82
2019-05-23T03:05:15.311Z,1017.77
2019-05-23T03:06:15.354Z,1017.81
2019-05-23T03:07:15.354Z,1017.79
2019-05-23T03:08:15.289Z,1017.81
2019-05-23T03:09:15.289Z,1017.80
2019-05-23T03:10:15.290Z,1017.81
2019-05-23T03:11:15.362Z,1017.77
2019-05-23T03:12:15.308Z,1017.75
2019-05-23T03:13:15.406Z,1017.74
2019-05-23T03:14:15.318Z,1017.75
2019-05-23T03:15:15.349Z,1017.76
2019-05-23T03:16:15.297Z,1017.71
2019-05-23T03:17:15.338Z,1017.78
2019-05-23T03:18:15.366Z,1017.79
2019-05-23T03:19:15.363Z,1017.80
2019-05-23T03:20:15.422Z,1017.77
2019-05-23T03:21:15.475Z,1017.79
2019-05-23T03:22:15.324Z,1017.80
2019-05-23T03:23:15.331Z,1017.78
2019-05-23T03:24:15.348Z,1017.79
2019-05-23T03:25:15.362Z,1017.77
2019-05-23T03:26:15.378Z,1017.75
2019-05-23T03:27:15.337Z,1017.72
2019-05-23T03:28:15.319Z,1017.72
2019-05-23T03:29:15.316Z,1017.72
2019-05-23T03:30:15.334Z,1017.71
2019-05-23T03:31:28.657Z,1017.72
2019-05-23T03:32:15.335Z,1017.70
2019-05-23T03:33:15.378Z,1017.66
2019-05-23T03:34:15.385Z,1017.70
2019-05-23T03:35:15.375Z,1017.73
2019-05-23T03:36:15.327Z,1017.70
2019-05-23T03:37:15.366Z,1017.72
2019-05-23T03:38:15.365Z,1017.70
2019-05-23T03:39:15.343Z,1017.67
2019-05-23T03:40:15.380Z,1017.75
2019-05-23T03:41:15.354Z,1017.72
2019-05-23T03:42:15.329Z,1017.72
2019-05-23T03:43:15.347Z,1017.75
2019-05-23T03:44:15.342Z,1017.74
2019-05-23T03:45:15.353Z,1017.73
2019-05-23T03:46:15.364Z,1017.73
2019-05-23T03:47:15.404Z,1017.68
2019-05-23T03:48:15.328Z,1017.70
2019-05-23T03:49:15.404Z,1017.67
2019-05-23T03:50:15.418Z,1017.63
2019-05-23T03:51:15.349Z,1017.67
2019-05-23T03:52:15.361Z,1017.68
2019-05-23T03:53:15.391Z,1017.69
2019-05-23T03:54:15.414Z,1017.68
2019-05-23T03:55:15.363Z,1017.63
2019-05-23T03:56:15.324Z,1017.65
2019-05-23T03:57:15.372Z,1017.68
2019-05-23T03:58:15.399Z,1017.69
2019-05-23T03:59:15.857Z,1017.72
2019-05-23T04:00:15.388Z,1017.70
2019-05-23T04:01:15.478Z,1017.70
2019-05-23T04:02:15.367Z,1017.71
2019-05-23T04:03:15.414Z,1017.70
2019-05-23T04:04:15.379Z,1017.72
2019-05-23T04:05:15.488Z,1017.65
2019-05-23T04:06:17.980Z,1017.66
2019-05-23T04:07:15.369Z,1017.70
2019-05-23T04:08:15.513Z,1017.70
2019-05-23T04:09:15.363Z,1017.67
2019-05-23T04:10:15.402Z,1017.75
2019-05-23T04:11:15.373Z,1017.66
2019-05-23T04:12:15.382Z,1017.73
2019-05-23T04:13:15.430Z,1017.77
2019-05-23T04:14:15.378Z,1017.72
2019-05-23T04:15:15.391Z,1017.75
2019-05-23T04:16:15.456Z,1017.67
2019-05-23T04:17:15.399Z,1017.70
2019-05-23T04:18:15.376Z,1017.72
2019-05-23T04:19:15.439Z,1017.70
2019-05-23T04:20:15.427Z,1017.70
2019-05-23T04:21:15.418Z,1017.72
2019-05-23T04:22:15.415Z,1017.70
2019-05-23T04:23:15.381Z,1017.66
2019-05-23T04:24:15.414Z,1017.66
2019-05-23T04:25:15.400Z,1017.68
2019-05-23T04:26:15.512Z,1017.70
2019-05-23T04:27:15.422Z,1017.65
2019-05-23T04:28:15.410Z,1017.69
2019-05-23T04:29:15.404Z,1017.66
2019-05-23T04:30:15.458Z,1017.68
2019-05-23T04:31:15.427Z,1017.72
2019-05-23T04:32:15.394Z,1017.67
2019-05-23T04:33:15.438Z,1017.68
2019-05-23T04:34:15.399Z,1017.74
2019-05-23T04:35:15.389Z,1017.64
2019-05-23T04:36:15.378Z,1017.63
2019-05-23T04:37:15.386Z,1017.62
2019-05-23T04:38:15.391Z,1017.61
2019-05-23T04:39:15.412Z,1017.66
2019-05-23T04:40:15.456Z,1017.63
2019-05-23T04:41:15.434Z,1017.62
2019-05-23T04:42:15.411Z,1017.59
2019-05-23T04:43:15.448Z,1017.60
2019-05-23T04:44:15.401Z,1017.63
2019-05-23T04:45:15.460Z,1017.61
2019-05-23T04:46:15.459Z,1017.57
2019-05-23T04:47:15.470Z,1017.63
2019-05-23T04:48:15.437Z,1017.63
2019-05-23T04:49:15.374Z,1017.64
2019-05-23T04:50:15.432Z,1017.61
2019-05-23T04:51:15.414Z,1017.61
2019-05-23T04:52:15.453Z,1017.63
2019-05-23T04:53:15.479Z,1017.59
2019-05-23T04:54:15.429Z,1017.59
2019-05-23T04:55:15.468Z,1017.67
2019-05-23T04:56:15.450Z,1017.58
2019-05-23T04:57:15.421Z,1017.57
2019-05-23T04:58:15.415Z,1017.65
2019-05-23T04:59:15.545Z,1017.61
2019-05-23T05:00:15.484Z,1017.53
2019-05-23T05:01:15.432Z,1017.59
2019-05-23T05:02:25.539Z,1017.59
2019-05-23T05:03:18.198Z,1017.59
2019-05-23T05:04:15.454Z,1017.61
2019-05-23T05:05:15.434Z,1017.61
2019-05-23T05:06:15.449Z,1017.63
2019-05-23T05:07:15.415Z,1017.66
2019-05-23T05:08:15.561Z,1017.66
2019-05-23T05:09:15.428Z,1017.62
2019-05-23T05:10:15.484Z,1017.61
2019-05-23T05:11:15.422Z,1017.63
2019-05-23T05:12:15.415Z,1017.57
2019-05-23T05:13:15.484Z,1017.62
2019-05-23T05:14:15.490Z,1017.62
2019-05-23T05:15:15.452Z,1017.66
2019-05-23T05:16:15.512Z,1017.58
2019-05-23T05:17:15.521Z,1017.62
2019-05-23T05:18:15.457Z,1017.65
2019-05-23T05:19:15.468Z,1017.63
2019-05-23T05:20:15.496Z,1017.70
2019-05-23T05:21:15.453Z,1017.73
2019-05-23T05:22:15.439Z,1017.65
2019-05-23T05:23:16.873Z,1017.71
2019-05-23T05:24:16.866Z,1017.66
2019-05-23T05:25:16.874Z,1017.74
2019-05-23T05:26:16.992Z,1017.75
2019-05-23T05:27:15.445Z,1017.71
2019-05-23T05:28:15.432Z,1017.78
2019-05-23T05:29:15.548Z,1017.74
2019-05-23T05:30:15.432Z,1017.71
2019-05-23T05:31:15.474Z,1017.77
2019-05-23T05:32:15.442Z,1017.71
2019-05-23T05:33:15.446Z,1017.75
2019-05-23T05:34:15.551Z,1017.76
2019-05-23T05:35:15.470Z,1017.79
2019-05-23T05:36:15.494Z,1017.77
2019-05-23T05:37:15.429Z,1017.75
2019-05-23T05:38:15.452Z,1017.80
2019-05-23T05:39:15.507Z,1017.75
2019-05-23T05:40:15.451Z,1017.79
2019-05-23T05:41:15.653Z,1017.74
2019-05-23T05:42:15.481Z,1017.71
2019-05-23T05:43:15.492Z,1017.73
2019-05-23T05:44:15.440Z,1017.72
2019-05-23T05:45:15.575Z,1017.74
2019-05-23T05:46:15.467Z,1017.76
2019-05-23T05:47:15.523Z,1017.72
2019-05-23T05:48:15.516Z,1017.78
2019-05-23T05:49:15.513Z,1017.81
2019-05-23T05:50:15.446Z,1017.79
2019-05-23T05:51:15.505Z,1017.82
2019-05-23T05:52:15.593Z,1017.86
2019-05-23T05:53:15.565Z,1017.76
2019-05-23T05:54:15.466Z,1017.78
2019-05-23T05:55:15.457Z,1017.84
2019-05-23T05:56:15.522Z,1017.81
2019-05-23T05:57:15.517Z,1017.83
2019-05-23T05:58:15.461Z,1017.83
2019-05-23T05:59:15.498Z,1017.84
2019-05-23T06:00:15.516Z,1017.86
2019-05-23T06:01:31.203Z,1017.85
2019-05-23T06:02:15.508Z,1017.90
2019-05-23T06:03:15.531Z,1017.87
2019-05-23T06:04:15.449Z,1017.87
2019-05-23T06:05:15.493Z,1017.79
2019-05-23T06:06:15.539Z,1017.85
2019-05-23T06:07:15.519Z,1017.84
2019-05-23T06:08:15.440Z,1017.81
2019-05-23T06:09:15.477Z,1017.81
2019-05-23T06:10:15.462Z,1017.85
2019-05-23T06:11:15.502Z,1017.86
2019-05-23T06:12:15.511Z,1017.85
2019-05-23T06:13:15.450Z,1017.86
2019-05-23T06:14:15.472Z,1017.85
2019-05-23T06:15:15.470Z,1017.92
2019-05-23T06:16:15.466Z,1017.91
2019-05-23T06:17:15.502Z,1017.95
2019-05-23T06:18:15.468Z,1017.93
2019-05-23T06:19:15.480Z,1017.96
2019-05-23T06:20:15.474Z,1017.92
2019-05-23T06:21:15.529Z,1017.93
2019-05-23T06:22:15.546Z,1017.92
2019-05-23T06:23:15.539Z,1017.96
2019-05-23T06:24:15.468Z,1018.02
2019-05-23T06:25:15.495Z,1017.98
2019-05-23T06:26:15.545Z,1017.98
2019-05-23T06:27:15.773Z,1017.99
2019-05-23T06:28:15.538Z,1017.96
2019-05-23T06:29:15.563Z,1017.99
2019-05-23T06:30:15.519Z,1017.99
2019-05-23T06:31:15.492Z,1017.98
2019-05-23T06:32:15.523Z,1017.97
2019-05-23T06:33:23.267Z,1017.96
2019-05-23T06:34:15.534Z,1017.99
2019-05-23T06:35:15.503Z,1017.98
2019-05-23T06:36:15.559Z,1018.05
2019-05-23T06:37:15.507Z,1017.97
2019-05-23T06:38:15.527Z,1017.99
2019-05-23T06:39:15.547Z,1017.95
2019-05-23T06:40:15.531Z,1017.97
2019-05-23T06:41:15.490Z,1017.91
2019-05-23T06:42:15.570Z,1017.93
2019-05-23T06:43:15.520Z,1017.88
2019-05-23T06:44:15.554Z,1017.93
2019-05-23T06:45:15.501Z,1017.96
2019-05-23T06:46:15.525Z,1017.89
2019-05-23T06:47:15.542Z,1017.93
2019-05-23T06:48:15.548Z,1017.94
2019-05-23T06:49:15.572Z,1017.94
2019-05-23T06:50:15.537Z,1017.95
2019-05-23T06:51:15.539Z,1017.92
2019-05-23T06:52:15.530Z,1017.91
2019-05-23T06:53:15.555Z,1017.92
2019-05-23T06:54:15.557Z,1018.00
2019-05-23T06:55:15.526Z,1017.95
2019-05-23T06:56:15.563Z,1017.96
2019-05-23T06:57:15.538Z,1017.98
2019-05-23T06:58:15.527Z,1017.89
2019-05-23T06:59:15.674Z,1017.91
2019-05-23T07:00:15.584Z,1017.93
2019-05-23T07:01:15.586Z,1017.96
2019-05-23T07:02:15.522Z,1017.93
2019-05-23T07:03:15.542Z,1017.94
2019-05-23T07:04:15.535Z,1017.91
2019-05-23T07:05:15.634Z,1017.99
2019-05-23T07:06:15.590Z,1017.97
2019-05-23T07:07:15.577Z,1017.95
2019-05-23T07:08:15.543Z,1017.93
2019-05-23T07:09:15.545Z,1017.93
2019-05-23T07:10:15.544Z,1018.03
2019-05-23T07:11:15.597Z,1017.98
2019-05-23T07:12:15.565Z,1017.97
2019-05-23T07:13:15.541Z,1017.96
2019-05-23T07:14:15.541Z,1017.93
2019-05-23T07:15:15.626Z,1017.93
2019-05-23T07:16:15.611Z,1017.91
2019-05-23T07:17:15.669Z,1017.93
2019-05-23T07:18:15.579Z,1017.90
2019-05-23T07:19:15.622Z,1017.90
2019-05-23T07:20:15.577Z,1017.92
2019-05-23T07:21:15.538Z,1017.85
2019-05-23T07:22:18.481Z,1017.85
2019-05-23T07:23:15.557Z,1017.92
2019-05-23T07:24:15.686Z,1017.92
2019-05-23T07:25:15.599Z,1017.90
2019-05-23T07:26:15.608Z,1017.89
2019-05-23T07:27:15.623Z,1017.95
2019-05-23T07:28:15.611Z,1017.92
2019-05-23T07:29:15.587Z,1017.89
2019-05-23T07:30:15.554Z,1017.93
2019-05-23T07:31:15.565Z,1017.91
2019-05-23T07:32:15.592Z,1017.93
2019-05-23T07:33:15.607Z,1017.93
2019-05-23T07:34:15.591Z,1017.95
2019-05-23T07:35:15.625Z,1017.87
2019-05-23T07:36:15.710Z,1017.93
2019-05-23T07:37:15.572Z,1017.90
2019-05-23T07:38:15.574Z,1017.92
2019-05-23T07:39:15.604Z,1017.87
2019-05-23T07:40:15.679Z,1017.85
2019-05-23T07:41:15.694Z,1017.89
2019-05-23T07:42:15.687Z,1017.88
2019-05-23T07:43:15.564Z,1017.87
2019-05-23T07:44:15.772Z,1017.89
2019-05-23T07:45:15.603Z,1017.96
2019-05-23T07:46:15.604Z,1017.91
2019-05-23T07:47:15.612Z,1017.94
2019-05-23T07:48:15.622Z,1017.89
2019-05-23T07:49:15.622Z,1017.89
2019-05-23T07:50:15.631Z,1017.88
2019-05-23T07:51:15.633Z,1017.84
2019-05-23T07:52:15.599Z,1017.88
2019-05-23T07:53:15.685Z,1017.87
2019-05-23T07:54:15.700Z,1017.88
2019-05-23T07:55:15.603Z,1017.86
2019-05-23T07:56:15.608Z,1017.85
2019-05-23T07:57:15.593Z,1017.85
2019-05-23T07:58:15.646Z,1017.85
2019-05-23T07:59:15.630Z,1017.85
2019-05-23T08:00:15.588Z,1017.84
2019-05-23T08:01:15.605Z,1017.83
2019-05-23T08:02:15.626Z,1017.85
2019-05-23T08:03:15.576Z,1017.80
2019-05-23T08:04:21.991Z,1017.88
2019-05-23T08:05:15.610Z,1017.81
2019-05-23T08:06:15.617Z,1017.83
2019-05-23T08:07:15.588Z,1017.83
2019-05-23T08:08:15.719Z,1017.81
2019-05-23T08:09:15.614Z,1017.82
2019-05-23T08:10:30.973Z,1017.82
2019-05-23T08:11:15.612Z,1017.80
2019-05-23T08:12:15.599Z,1017.82
2019-05-23T08:13:15.602Z,1017.82
2019-05-23T08:14:15.660Z,1017.82
2019-05-23T08:15:15.626Z,1017.80
2019-05-23T08:16:15.647Z,1017.76
2019-05-23T08:17:15.650Z,1017.82
2019-05-23T08:18:15.606Z,1017.75
2019-05-23T08:19:19.210Z,1017.78
2019-05-23T08:20:15.716Z,1017.71
2019-05-23T08:21:15.617Z,1017.77
2019-05-23T08:22:15.625Z,1017.80
2019-05-23T08:23:15.630Z,1017.82
2019-05-23T08:24:15.658Z,1017.79
2019-05-23T08:25:15.639Z,1017.83
2019-05-23T08:26:15.641Z,1017.75
2019-05-23T08:27:15.626Z,1017.76
2019-05-23T08:28:15.615Z,1017.76
2019-05-23T08:29:24.876Z,1017.75
2019-05-23T08:30:15.619Z,1017.77
2019-05-23T08:31:15.604Z,1017.76
2019-05-23T08:32:15.648Z,1017.78
2019-05-23T08:33:15.682Z,1017.75
2019-05-23T08:34:15.658Z,1017.75
2019-05-23T08:35:17.847Z,1017.76
2019-05-23T08:36:15.648Z,1017.76
2019-05-23T08:37:15.627Z,1017.70
2019-05-23T08:38:15.674Z,1017.75
2019-05-23T08:39:15.640Z,1017.68
2019-05-23T08:40:15.619Z,1017.81
2019-05-23T08:41:15.746Z,1017.68
2019-05-23T08:42:15.612Z,1017.74
2019-05-23T08:43:15.680Z,1017.65
2019-05-23T08:44:15.656Z,1017.67
2019-05-23T08:45:15.660Z,1017.67
2019-05-23T08:46:15.646Z,1017.72
2019-05-23T08:47:15.640Z,1017.67
2019-05-23T08:48:15.642Z,1017.66
2019-05-23T08:49:15.650Z,1017.63
2019-05-23T08:50:15.682Z,1017.64
2019-05-23T08:51:15.664Z,1017.68
2019-05-23T08:52:15.678Z,1017.65
2019-05-23T08:53:15.692Z,1017.70
2019-05-23T08:54:15.644Z,1017.70
2019-05-23T08:55:15.693Z,1017.68
2019-05-23T08:56:19.262Z,1017.68
2019-05-23T08:57:15.681Z,1017.68
2019-05-23T08:58:15.690Z,1017.66
2019-05-23T08:59:15.683Z,1017.66
2019-05-23T09:00:15.643Z,1017.69
2019-05-23T09:01:15.684Z,1017.69
2019-05-23T09:02:15.712Z,1017.66
2019-05-23T09:03:15.645Z,1017.68
2019-05-23T09:04:15.676Z,1017.63
2019-05-23T09:05:15.666Z,1017.67
2019-05-23T09:06:15.667Z,1017.64
2019-05-23T09:07:15.748Z,1017.64
2019-05-23T09:08:16.890Z,1017.64
2019-05-23T09:09:28.966Z,1017.56
2019-05-23T09:10:15.640Z,1017.57
2019-05-23T09:11:15.660Z,1017.53
2019-05-23T09:12:15.653Z,1017.56
2019-05-23T09:13:15.620Z,1017.59
2019-05-23T09:14:15.648Z,1017.51
2019-05-23T09:15:15.638Z,1017.49
2019-05-23T09:16:15.657Z,1017.47
2019-05-23T09:17:15.660Z,1017.46
2019-05-23T09:18:15.684Z,1017.52
2019-05-23T09:19:15.657Z,1017.49
2019-05-23T09:20:15.713Z,1017.52
2019-05-23T09:21:15.651Z,1017.50
2019-05-23T09:22:15.666Z,1017.49
2019-05-23T09:23:15.695Z,1017.50
2019-05-23T09:24:15.702Z,1017.44
2019-05-23T09:25:15.681Z,1017.49
2019-05-23T09:26:15.717Z,1017.43
2019-05-23T09:27:15.705Z,1017.44
2019-05-23T09:28:15.723Z,1017.45
2019-05-23T09:29:15.735Z,1017.50
2019-05-23T09:30:15.689Z,1017.50
2019-05-23T09:31:15.694Z,1017.45
2019-05-23T09:32:15.691Z,1017.48
2019-05-23T09:33:15.737Z,1017.48
2019-05-23T09:34:15.683Z,1017.48
2019-05-23T09:35:21.078Z,1017.47
2019-05-23T09:36:15.720Z,1017.47
2019-05-23T09:37:15.704Z,1017.50
2019-05-23T09:38:15.713Z,1017.46
2019-05-23T09:39:15.727Z,1017.46
2019-05-23T09:40:15.712Z,1017.40
2019-05-23T09:41:15.706Z,1017.43
2019-05-23T09:42:15.713Z,1017.38
2019-05-23T09:43:15.778Z,1017.40
2019-05-23T09:44:15.677Z,1017.44
2019-05-23T09:45:15.695Z,1017.40
2019-05-23T09:46:15.739Z,1017.40
2019-05-23T09:47:15.675Z,1017.44
2019-05-23T09:48:15.792Z,1017.41
2019-05-23T09:49:15.703Z,1017.42
2019-05-23T09:50:15.699Z,1017.35
2019-05-23T09:51:15.723Z,1017.37
2019-05-23T09:52:15.803Z,1017.35
2019-05-23T09:53:15.709Z,1017.33
2019-05-23T09:54:15.709Z,1017.40
2019-05-23T09:55:15.745Z,1017.33
2019-05-23T09:56:15.747Z,1017.35
2019-05-23T09:57:15.746Z,1017.32
2019-05-23T09:58:15.742Z,1017.28
2019-05-23T09:59:15.715Z,1017.31
2019-05-23T10:00:15.728Z,1017.34
2019-05-23T10:01:15.731Z,1017.27
2019-05-23T10:02:15.741Z,1017.28
2019-05-23T10:03:15.748Z,1017.25
2019-05-23T10:04:15.723Z,1017.23
2019-05-23T10:05:15.726Z,1017.18
2019-05-23T10:06:15.739Z,1017.20
2019-05-23T10:07:15.755Z,1017.19
2019-05-23T10:08:15.755Z,1017.22
2019-05-23T10:09:15.729Z,1017.19
2019-05-23T10:10:15.719Z,1017.31
2019-05-23T10:12:15.713Z,1017.23
2019-05-23T10:13:15.760Z,1017.22
2019-05-23T10:14:15.731Z,1017.21
2019-05-23T10:15:15.735Z,1017.21
2019-05-23T10:16:15.712Z,1017.17
2019-05-23T10:17:15.817Z,1017.17
2019-05-23T10:18:15.846Z,1017.21
2019-05-23T10:19:15.812Z,1017.16
2019-05-23T10:20:15.758Z,1017.16
2019-05-23T10:21:15.741Z,1017.10
2019-05-23T10:22:15.717Z,1017.11
2019-05-23T10:23:15.726Z,1017.12
2019-05-23T10:24:15.717Z,1017.03
2019-05-23T10:25:15.702Z,1017.05
2019-05-23T10:26:15.708Z,1017.06
2019-05-23T10:27:15.780Z,1017.06
2019-05-23T10:28:15.731Z,1017.06
2019-05-23T10:29:15.789Z,1017.08
2019-05-23T10:30:15.797Z,1017.06
2019-05-23T10:31:15.715Z,1017.04
2019-05-23T10:32:15.796Z,1016.99
2019-05-23T10:33:15.774Z,1016.98
2019-05-23T10:34:15.883Z,1017.01
2019-05-23T10:35:15.758Z,1016.97
2019-05-23T10:36:15.748Z,1016.99
2019-05-23T10:37:15.786Z,1016.99
2019-05-23T10:38:15.776Z,1016.94
2019-05-23T10:39:15.805Z,1016.94
2019-05-23T10:40:15.733Z,1016.95
2019-05-23T10:41:15.808Z,1016.93
2019-05-23T10:42:15.787Z,1016.95
2019-05-23T10:43:15.798Z,1016.90
2019-05-23T10:44:15.795Z,1016.89
2019-05-23T10:45:15.852Z,1016.86
2019-05-23T10:46:15.768Z,1016.85
2019-05-23T10:47:15.764Z,1016.90
2019-05-23T10:48:15.739Z,1016.80
2019-05-23T10:49:15.799Z,1016.81
2019-05-23T10:50:15.782Z,1016.87
2019-05-23T10:51:15.809Z,1016.81
2019-05-23T10:52:15.817Z,1016.81
2019-05-23T10:53:15.781Z,1016.83
2019-05-23T10:54:15.773Z,1016.80
2019-05-23T10:55:15.784Z,1016.77
2019-05-23T10:56:20.433Z,1016.79
2019-05-23T10:57:15.760Z,1016.79
2019-05-23T10:58:15.745Z,1016.75
2019-05-23T10:59:15.755Z,1016.75
2019-05-23T11:00:15.799Z,1016.70
2019-05-23T11:01:15.828Z,1016.69
2019-05-23T11:02:15.805Z,1016.70
2019-05-23T11:03:15.743Z,1016.71
2019-05-23T11:04:15.839Z,1016.69
2019-05-23T11:05:15.772Z,1016.67
2019-05-23T11:06:16.862Z,1016.62
2019-05-23T11:07:15.745Z,1016.67
2019-05-23T11:08:15.878Z,1016.60
2019-05-23T11:09:15.814Z,1016.63
2019-05-23T11:10:15.792Z,1016.62
2019-05-23T11:11:15.838Z,1016.60
2019-05-23T11:12:15.801Z,1016.53
2019-05-23T11:13:15.785Z,1016.65
2019-05-23T11:14:15.819Z,1016.57
2019-05-23T11:15:15.778Z,1016.59
2019-05-23T11:16:15.803Z,1016.60
2019-05-23T11:17:15.798Z,1016.60
2019-05-23T11:18:15.791Z,1016.56
2019-05-23T11:19:15.787Z,1016.59
2019-05-23T11:20:15.861Z,1016.59
2019-05-23T11:21:15.819Z,1016.56
2019-05-23T11:22:15.789Z,1016.54
2019-05-23T11:23:15.800Z,1016.47
2019-05-23T11:24:15.811Z,1016.50
2019-05-23T11:25:15.808Z,1016.51
2019-05-23T11:26:15.817Z,1016.53
2019-05-23T11:27:15.795Z,1016.52
2019-05-23T11:28:15.841Z,1016.51
2019-05-23T11:29:15.794Z,1016.47
2019-05-23T11:30:15.817Z,1016.55
2019-05-23T11:31:15.834Z,1016.50
2019-05-23T11:32:19.815Z,1016.43
2019-05-23T11:33:15.912Z,1016.47
2019-05-23T11:34:15.822Z,1016.47
2019-05-23T11:35:15.794Z,1016.42
2019-05-23T11:36:31.785Z,1016.35
2019-05-23T11:37:15.857Z,1016.38
2019-05-23T11:38:15.854Z,1016.36
2019-05-23T11:39:15.768Z,1016.37
2019-05-23T11:40:15.817Z,1016.38
2019-05-23T11:41:15.807Z,1016.33
2019-05-23T11:42:16.012Z,1016.27
2019-05-23T11:43:15.840Z,1016.26
2019-05-23T11:44:15.821Z,1016.26
2019-05-23T11:45:15.813Z,1016.27
2019-05-23T11:46:15.829Z,1016.27
2019-05-23T11:47:15.820Z,1016.25
2019-05-23T11:48:16.230Z,1016.28
2019-05-23T11:49:15.804Z,1016.28
2019-05-23T11:50:15.811Z,1016.32
2019-05-23T11:51:15.806Z,1016.33
2019-05-23T11:52:15.849Z,1016.32
2019-05-23T11:53:15.827Z,1016.31
2019-05-23T11:54:15.820Z,1016.30
2019-05-23T11:55:15.870Z,1016.29
2019-05-23T11:56:15.843Z,1016.28
2019-05-23T11:57:15.841Z,1016.22
2019-05-23T11:58:15.861Z,1016.32
2019-05-23T11:59:15.836Z,1016.21
2019-05-23T12:00:15.912Z,1016.25
2019-05-23T12:01:20.877Z,1016.23
2019-05-23T12:02:17.290Z,1016.24
2019-05-23T12:03:16.786Z,1016.24
2019-05-23T12:04:17.406Z,1016.18
2019-05-23T12:05:17.212Z,1016.25
2019-05-23T12:06:17.322Z,1016.17